Buoy 43533

sailwx.info

Track history (hours):
 
Tides and Currents Weather Stations Pressure Air Temp Water Temp Dewpoint Dewpoint Depression Visibility Wind Speed Wind Dir Waves Ship Positions

Drifting buoy 43533

Last reported at 2017-Mar-30 12:00 UTC. Time now 2017-Mar-30 12:46 UTC.
Position N 19°50' W 122°05'.

Length 24 m.

Type: Fishing. MMSI: 412466549.

Water temperature 21.8 ° C

Date/timePositionNaut miles runAvg speedWind from/ knotsBaromVisibWave heightAir tempDewpointWater temp
2017-Mar-30 12:00N 19°50' W 122°05'1 0.6 21.8
2017-Mar-30 10:00N 19°50' W 122°04'0 0.0 21.8
2017-Mar-30 09:00N 19°50' W 122°04'0 0.0 21.8
2017-Mar-30 06:00N 19°50' W 122°04'1 0.6 21.9
2017-Mar-30 05:00N 19°51' W 122°04'1 0.8 21.9
2017-Mar-30 04:00N 19°52' W 122°04'0 0.0 21.9
2017-Mar-30 03:00N 19°52' W 122°04'1 0.8 21.9
2017-Mar-30 02:00N 19°52' W 122°03'1 0.7 21.9
2017-Mar-30 00:00N 19°53' W 122°02'0 0.0 22.0
2017-Mar-29 23:00N 19°53' W 122°02'2 2.1 21.9
2017-Mar-29 22:00N 19°55' W 122°01'1 1.3 21.9
2017-Mar-29 21:00N 19°54' W 122°02'1 0.4 21.9
2017-Mar-29 18:00N 19°55' W 122°01'0 0.0 21.9
2017-Mar-29 17:00N 19°55' W 122°01'2 1.6 21.8
2017-Mar-29 16:00N 19°56' W 122°00'0 0.0 21.8
2017-Mar-29 15:00N 19°56' W 122°00'1 0.8 21.8
2017-Mar-29 14:00N 19°56' W 122°01'4 2.0 21.8
2017-Mar-29 12:00N 19°59' W 121°59'3 2.7 21.9
2017-Mar-29 11:00N 19°57' W 122°00'3 0.5 21.9
2017-Mar-29 06:00N 19°59' W 121°59'1 0.8 21.9
2017-Mar-29 05:00N 20°00' W 121°58'0 0.0 21.9
2017-Mar-29 04:00N 20°00' W 121°58'1 0.6 21.9
2017-Mar-29 03:00N 20°01' W 121°58'0 0.0 21.9
2017-Mar-29 02:00N 20°01' W 121°58'1 1.2 21.9
2017-Mar-29 01:00N 20°02' W 121°58'0 0.0 21.9
2017-Mar-29 00:00N 20°02' W 121°58'1 0.8 21.9
2017-Mar-28 23:00N 20°02' W 121°58'1 1.2 21.9
2017-Mar-28 22:00N 20°04' W 121°58'0 0.0 21.9
2017-Mar-28 21:00N 20°04' W 121°58'1 0.3 21.9
2017-Mar-28 18:00N 20°04' W 121°57'1 0.6 21.9
2017-Mar-28 17:00N 20°04' W 121°56'1 0.6 21.9
2017-Mar-28 16:00N 20°05' W 121°56'0 0.0 21.9
2017-Mar-28 15:00N 20°05' W 121°56'1 0.8 21.9
2017-Mar-28 14:00N 20°05' W 121°56'0 0.0 21.9
2017-Mar-28 13:00N 20°05' W 121°56'1 0.8 21.9
2017-Mar-28 12:00N 20°06' W 121°55'0 0.0 21.9
2017-Mar-28 11:00N 20°06' W 121°55'1 0.6 21.9
2017-Mar-28 10:00N 20°06' W 121°56'3 0.8 21.9
2017-Mar-28 06:00N 20°09' W 121°55'1 0.6 21.9
2017-Mar-28 05:00N 20°08' W 121°55'1 1.2 21.9
2017-Mar-28 04:00N 20°10' W 121°55'0 0.0 21.9
2017-Mar-28 03:00N 20°10' W 121°55'1 0.6 21.9
2017-Mar-28 02:00N 20°10' W 121°54'1 1.3 22.1
2017-Mar-28 01:00N 20°11' W 121°53'0 0.0 22.1
2017-Mar-28 00:00N 20°11' W 121°53'1 0.6 22.1
2017-Mar-27 23:00N 20°11' W 121°53'2 2.5 22.1
2017-Mar-27 22:00N 20°14' W 121°53'0 0.0 22.1
2017-Mar-27 21:00N 20°14' W 121°53'0 0.0 22.1
2017-Mar-27 18:00N 20°14' W 121°53'1 0.6 22.0
2017-Mar-27 17:00N 20°14' W 121°53'2 1.8 22.0
2017-Mar-27 16:00N 20°16' W 121°53'0 0.0 22.0
2017-Mar-27 15:00N 20°16' W 121°53'1 0.8 22.0
2017-Mar-27 14:00N 20°17' W 121°52'0 0.0 22.0
2017-Mar-27 13:00N 20°17' W 121°52'1 1.2 22.1
2017-Mar-27 12:00N 20°18' W 121°52'2 2.5 22.1
2017-Mar-27 11:00N 20°20' W 121°53'0 0.0 22.1
2017-Mar-27 10:00N 20°20' W 121°53'0 0.0 22.1
2017-Mar-27 06:00N 20°20' W 121°53'1 0.6 22.1
2017-Mar-27 05:00N 20°21' W 121°53'1 0.6 22.1
2017-Mar-27 04:00N 20°22' W 121°53'1 0.6 22.1
2017-Mar-27 03:00N 20°22' W 121°52'1 0.3 22.1
2017-Mar-27 01:00N 20°22' W 121°52'1 0.6 22.1
2017-Mar-27 00:00N 20°23' W 121°52'1 0.8 22.1
2017-Mar-26 23:00N 20°23' W 121°52'0 0.0 22.1
2017-Mar-26 22:00N 20°23' W 121°52'2 0.5 22.1
2017-Mar-26 18:00N 20°25' W 121°50'1 0.8 22.1
2017-Mar-26 17:00N 20°26' W 121°50'0 0.0 22.1
2017-Mar-26 16:00N 20°26' W 121°50'0 0.0 22.1
2017-Mar-26 15:00N 20°26' W 121°50'1 0.6 22.1
2017-Mar-26 14:00N 20°26' W 121°49'1 0.8 22.1
2017-Mar-26 13:00N 20°26' W 121°50'3 1.6 22.1
2017-Mar-26 11:00N 20°29' W 121°49'2 1.9 22.1
2017-Mar-26 10:00N 20°28' W 121°49'2 0.5 22.1
2017-Mar-26 06:00N 20°29' W 121°49'1 0.6 22.1
2017-Mar-26 05:00N 20°30' W 121°49'0 0.0 22.1
2017-Mar-26 04:00N 20°30' W 121°49'2 1.6 22.1
2017-Mar-26 03:00N 20°31' W 121°47'1 0.6 22.1
2017-Mar-26 02:00N 20°31' W 121°48'1 0.8 22.1
2017-Mar-26 01:00N 20°32' W 121°47'0 0.0 22.1
2017-Mar-25 22:00N 20°32' W 121°47'1 0.4 22.1
2017-Mar-25 19:00N 20°33' W 121°47'0 0.0 22.1
2017-Mar-25 18:00N 20°33' W 121°47'0 0.0 22.1
2017-Mar-25 17:00N 20°33' W 121°47'1 0.8 22.1
2017-Mar-25 16:00N 20°34' W 121°46'1 0.6 22.1
2017-Mar-25 15:00N 20°34' W 121°46'1 1.3 22.1
2017-Mar-25 14:00N 20°34' W 121°44'0 0.0 22.1
2017-Mar-25 13:00N 20°34' W 121°44'1 0.6 22.1
2017-Mar-25 12:00N 20°35' W 121°44'3 2.6 22.1
2017-Mar-25 11:00N 20°37' W 121°43'0 0.0 22.1
2017-Mar-25 06:00N 20°37' W 121°43'1 0.6 22.1
2017-Mar-25 05:00N 20°38' W 121°43'1 0.8 22.1
2017-Mar-25 04:00N 20°38' W 121°43'1 0.6 22.1
2017-Mar-25 03:00N 20°38' W 121°43'1 0.6 22.1
2017-Mar-25 01:00N 20°39' W 121°42'2 0.9 22.1
2017-Mar-24 23:00N 20°41' W 121°41'0 0.0 22.2
2017-Mar-24 22:00N 20°41' W 121°41'1 0.1 22.2
2017-Mar-24 18:00N 20°41' W 121°41'1 0.6 22.1
2017-Mar-24 17:00N 20°41' W 121°41'1 0.8 22.1
2017-Mar-24 16:00N 20°42' W 121°40'0 0.0 22.1
2017-Mar-24 15:00N 20°42' W 121°40'1 0.6 22.1
2017-Mar-24 14:00N 20°43' W 121°40'0 0.0 22.1
2017-Mar-24 13:00N 20°43' W 121°40'1 0.7 22.1
2017-Mar-24 11:00N 20°44' W 121°40'0 0.0 22.1
2017-Mar-24 10:00N 20°44' W 121°40'0 0.0 22.1
2017-Mar-24 06:00N 20°44' W 121°40'1 1.3 22.2
2017-Mar-24 05:00N 20°44' W 121°38'1 0.6 22.2
2017-Mar-24 04:00N 20°44' W 121°39'0 0.0 22.2
2017-Mar-24 03:00N 20°44' W 121°39'2 2.2 22.2
2017-Mar-24 02:00N 20°44' W 121°37'0 0.0 22.2
2017-Mar-24 01:00N 20°44' W 121°37'0 0.0 22.3
2017-Mar-24 00:00N 20°44' W 121°37'1 0.6 22.3
2017-Mar-23 23:00N 20°44' W 121°37'0 0.0 22.3
2017-Mar-23 22:00N 20°44' W 121°37'3 1.0 22.3
2017-Mar-23 19:00N 20°46' W 121°34'1 0.8 22.3
2017-Mar-23 18:00N 20°45' W 121°34'2 1.6 22.3
2017-Mar-23 17:00N 20°46' W 121°32'1 0.3 22.3
2017-Mar-23 15:00N 20°46' W 121°32'1 0.6 22.3
2017-Mar-23 14:00N 20°46' W 121°31'3 1.1 22.4
2017-Mar-23 11:00N 20°48' W 121°28'3 2.6 22.4
2017-Mar-23 10:00N 20°50' W 121°27'3 2.6 22.4
2017-Mar-23 09:00N 20°48' W 121°28'4 1.3 22.4
2017-Mar-23 06:00N 20°52' W 121°26'1 0.6 22.5
2017-Mar-23 05:00N 20°52' W 121°26'1 0.4 22.5
2017-Mar-23 03:00N 20°53' W 121°26'1 1.3 22.6
2017-Mar-23 02:00N 20°54' W 121°25'1 0.6 22.7
2017-Mar-23 01:00N 20°54' W 121°26'1 0.8 22.8
2017-Mar-23 00:00N 20°55' W 121°25'0 0.0 22.9
2017-Mar-22 23:00N 20°55' W 121°25'1 0.4 22.9
2017-Mar-22 21:00N 20°55' W 121°25'1 0.4 22.9
2017-Mar-22 18:00N 20°56' W 121°24'1 0.6 22.5
2017-Mar-22 17:00N 20°57' W 121°24'1 0.6 22.4
2017-Mar-22 16:00N 20°57' W 121°23'0 0.0 22.4
2017-Mar-22 15:00N 20°57' W 121°23'1 1.1 22.4
2017-Mar-22 14:00N 20°57' W 121°22'1 0.8 22.4
2017-Mar-22 13:00N 20°58' W 121°22'1 0.6 22.4
2017-Mar-22 12:00N 20°58' W 121°22'1 0.8 22.4
2017-Mar-22 11:00N 20°58' W 121°22'2 1.8 22.4
2017-Mar-22 10:00N 20°59' W 121°20'2 1.6 22.4
2017-Mar-22 09:00N 20°58' W 121°21'2 0.5 22.4
2017-Mar-22 06:00N 20°59' W 121°20'1 0.8 22.4
2017-Mar-22 05:00N 20°59' W 121°19'0 0.0 22.5
2017-Mar-22 04:00N 20°59' W 121°19'1 0.6 22.5
2017-Mar-22 03:00N 20°59' W 121°19'2 2.1 22.6
2017-Mar-22 02:00N 21°01' W 121°17'1 0.3 -0.0
2017-Mar-21 23:00N 21°01' W 121°16'2 1.0 22.6
2017-Mar-21 21:00N 21°02' W 121°14'1 0.2 22.6
2017-Mar-21 18:00N 21°03' W 121°14'1 0.8 22.4
2017-Mar-21 17:00N 21°04' W 121°14'0 0.0 22.4
2017-Mar-21 16:00N 21°04' W 121°14'1 0.6 22.3
2017-Mar-21 15:00N 21°03' W 121°14'2 1.8 22.3
2017-Mar-21 14:00N 21°04' W 121°12'0 0.0 22.3
2017-Mar-21 13:00N 21°04' W 121°12'1 1.1 22.3
2017-Mar-21 12:00N 21°04' W 121°11'1 0.6 22.3
2017-Mar-21 11:00N 21°04' W 121°11'3 2.9 22.4
2017-Mar-21 10:00N 21°04' W 121°08'2 2.3 22.4
2017-Mar-21 09:00N 21°04' W 121°11'3 1.0 22.4
2017-Mar-21 06:00N 21°04' W 121°08'1 0.6 22.4
2017-Mar-21 05:00N 21°04' W 121°07'1 0.6 22.4
2017-Mar-21 04:00N 21°04' W 121°07'0 0.0 22.4
2017-Mar-21 03:00N 21°04' W 121°07'1 1.1 22.4
2017-Mar-21 02:00N 21°04' W 121°05'1 0.6 22.4
2017-Mar-21 01:00N 21°04' W 121°05'1 1.1 22.5
2017-Mar-21 00:00N 21°04' W 121°04'0 0.0 22.5
2017-Mar-20 23:00N 21°04' W 121°04'1 1.1 22.5
2017-Mar-20 22:00N 21°04' W 121°03'0 0.0 22.6
2017-Mar-20 21:00N 21°04' W 121°03'3 1.1 22.6
2017-Mar-20 18:00N 21°04' W 120°59'1 1.3 22.3
2017-Mar-20 17:00N 21°03' W 120°58'1 0.6 22.3
2017-Mar-20 16:00N 21°03' W 120°58'0 0.0 22.2
2017-Mar-20 15:00N 21°03' W 120°58'2 1.7 22.2
2017-Mar-20 14:00N 21°03' W 120°56'0 0.0 22.2
2017-Mar-20 13:00N 21°03' W 120°56'1 0.6 22.2
2017-Mar-20 12:00N 21°03' W 120°55'   22.2
Track history (hours):
 
Tides and Currents Weather Stations Pressure Air Temp Water Temp Dewpoint Dewpoint Depression Visibility Wind Speed Wind Dir Waves Ship Positions

Drifting buoy 43533

Last reported at 2017-Mar-30 12:00 UTC. Time now 2017-Mar-30 12:46 UTC.
Position N 19°50' W 122°05'.

Length 24 m.

Type: Fishing. MMSI: 412466549.

Water temperature 21.8 ° C

Date/timePositionNaut miles runAvg speedWind from/ knotsBaromVisibWave heightAir tempDewpointWater temp
2017-Mar-30 12:00N 19°50' W 122°05'1 0.6 21.8
2017-Mar-30 10:00N 19°50' W 122°04'0 0.0 21.8
2017-Mar-30 09:00N 19°50' W 122°04'0 0.0 21.8
2017-Mar-30 06:00N 19°50' W 122°04'1 0.6 21.9
2017-Mar-30 05:00N 19°51' W 122°04'1 0.8 21.9
2017-Mar-30 04:00N 19°52' W 122°04'0 0.0 21.9
2017-Mar-30 03:00N 19°52' W 122°04'1 0.8 21.9
2017-Mar-30 02:00N 19°52' W 122°03'1 0.7 21.9
2017-Mar-30 00:00N 19°53' W 122°02'0 0.0 22.0
2017-Mar-29 23:00N 19°53' W 122°02'2 2.1 21.9
2017-Mar-29 22:00N 19°55' W 122°01'1 1.3 21.9
2017-Mar-29 21:00N 19°54' W 122°02'1 0.4 21.9
2017-Mar-29 18:00N 19°55' W 122°01'0 0.0 21.9
2017-Mar-29 17:00N 19°55' W 122°01'2 1.6 21.8
2017-Mar-29 16:00N 19°56' W 122°00'0 0.0 21.8
2017-Mar-29 15:00N 19°56' W 122°00'1 0.8 21.8
2017-Mar-29 14:00N 19°56' W 122°01'4 2.0 21.8
2017-Mar-29 12:00N 19°59' W 121°59'3 2.7 21.9
2017-Mar-29 11:00N 19°57' W 122°00'3 0.5 21.9
2017-Mar-29 06:00N 19°59' W 121°59'1 0.8 21.9
2017-Mar-29 05:00N 20°00' W 121°58'0 0.0 21.9
2017-Mar-29 04:00N 20°00' W 121°58'1 0.6 21.9
2017-Mar-29 03:00N 20°01' W 121°58'0 0.0 21.9
2017-Mar-29 02:00N 20°01' W 121°58'1 1.2 21.9
2017-Mar-29 01:00N 20°02' W 121°58'0 0.0 21.9
2017-Mar-29 00:00N 20°02' W 121°58'1 0.8 21.9
2017-Mar-28 23:00N 20°02' W 121°58'1 1.2 21.9
2017-Mar-28 22:00N 20°04' W 121°58'0 0.0 21.9
2017-Mar-28 21:00N 20°04' W 121°58'1 0.3 21.9
2017-Mar-28 18:00N 20°04' W 121°57'1 0.6 21.9
2017-Mar-28 17:00N 20°04' W 121°56'1 0.6 21.9
2017-Mar-28 16:00N 20°05' W 121°56'0 0.0 21.9
2017-Mar-28 15:00N 20°05' W 121°56'1 0.8 21.9
2017-Mar-28 14:00N 20°05' W 121°56'0 0.0 21.9
2017-Mar-28 13:00N 20°05' W 121°56'1 0.8 21.9
2017-Mar-28 12:00N 20°06' W 121°55'0 0.0 21.9
2017-Mar-28 11:00N 20°06' W 121°55'1 0.6 21.9
2017-Mar-28 10:00N 20°06' W 121°56'3 0.8 21.9
2017-Mar-28 06:00N 20°09' W 121°55'1 0.6 21.9
2017-Mar-28 05:00N 20°08' W 121°55'1 1.2 21.9
2017-Mar-28 04:00N 20°10' W 121°55'0 0.0 21.9
2017-Mar-28 03:00N 20°10' W 121°55'1 0.6 21.9
2017-Mar-28 02:00N 20°10' W 121°54'1 1.3 22.1
2017-Mar-28 01:00N 20°11' W 121°53'0 0.0 22.1
2017-Mar-28 00:00N 20°11' W 121°53'1 0.6 22.1
2017-Mar-27 23:00N 20°11' W 121°53'2 2.5 22.1
2017-Mar-27 22:00N 20°14' W 121°53'0 0.0 22.1
2017-Mar-27 21:00N 20°14' W 121°53'0 0.0 22.1
2017-Mar-27 18:00N 20°14' W 121°53'1 0.6 22.0
2017-Mar-27 17:00N 20°14' W 121°53'2 1.8 22.0
2017-Mar-27 16:00N 20°16' W 121°53'0 0.0 22.0
2017-Mar-27 15:00N 20°16' W 121°53'1 0.8 22.0
2017-Mar-27 14:00N 20°17' W 121°52'0 0.0 22.0
2017-Mar-27 13:00N 20°17' W 121°52'1 1.2 22.1
2017-Mar-27 12:00N 20°18' W 121°52'2 2.5 22.1
2017-Mar-27 11:00N 20°20' W 121°53'0 0.0 22.1
2017-Mar-27 10:00N 20°20' W 121°53'0 0.0 22.1
2017-Mar-27 06:00N 20°20' W 121°53'1 0.6 22.1
2017-Mar-27 05:00N 20°21' W 121°53'1 0.6 22.1
2017-Mar-27 04:00N 20°22' W 121°53'1 0.6 22.1
2017-Mar-27 03:00N 20°22' W 121°52'1 0.3 22.1
2017-Mar-27 01:00N 20°22' W 121°52'1 0.6 22.1
2017-Mar-27 00:00N 20°23' W 121°52'1 0.8 22.1
2017-Mar-26 23:00N 20°23' W 121°52'0 0.0 22.1
2017-Mar-26 22:00N 20°23' W 121°52'2 0.5 22.1
2017-Mar-26 18:00N 20°25' W 121°50'1 0.8 22.1
2017-Mar-26 17:00N 20°26' W 121°50'0 0.0 22.1
2017-Mar-26 16:00N 20°26' W 121°50'0 0.0 22.1
2017-Mar-26 15:00N 20°26' W 121°50'1 0.6 22.1
2017-Mar-26 14:00N 20°26' W 121°49'1 0.8 22.1
2017-Mar-26 13:00N 20°26' W 121°50'3 1.6 22.1
2017-Mar-26 11:00N 20°29' W 121°49'2 1.9 22.1
2017-Mar-26 10:00N 20°28' W 121°49'2 0.5 22.1
2017-Mar-26 06:00N 20°29' W 121°49'1 0.6 22.1
2017-Mar-26 05:00N 20°30' W 121°49'0 0.0 22.1
2017-Mar-26 04:00N 20°30' W 121°49'2 1.6 22.1
2017-Mar-26 03:00N 20°31' W 121°47'1 0.6 22.1
2017-Mar-26 02:00N 20°31' W 121°48'1 0.8 22.1
2017-Mar-26 01:00N 20°32' W 121°47'0 0.0 22.1
2017-Mar-25 22:00N 20°32' W 121°47'1 0.4 22.1
2017-Mar-25 19:00N 20°33' W 121°47'0 0.0 22.1
2017-Mar-25 18:00N 20°33' W 121°47'0 0.0 22.1
2017-Mar-25 17:00N 20°33' W 121°47'1 0.8 22.1
2017-Mar-25 16:00N 20°34' W 121°46'1 0.6 22.1
2017-Mar-25 15:00N 20°34' W 121°46'1 1.3 22.1
2017-Mar-25 14:00N 20°34' W 121°44'0 0.0 22.1
2017-Mar-25 13:00N 20°34' W 121°44'1 0.6 22.1
2017-Mar-25 12:00N 20°35' W 121°44'3 2.6 22.1
2017-Mar-25 11:00N 20°37' W 121°43'0 0.0 22.1
2017-Mar-25 06:00N 20°37' W 121°43'1 0.6 22.1
2017-Mar-25 05:00N 20°38' W 121°43'1 0.8 22.1
2017-Mar-25 04:00N 20°38' W 121°43'1 0.6 22.1
2017-Mar-25 03:00N 20°38' W 121°43'1 0.6 22.1
2017-Mar-25 01:00N 20°39' W 121°42'2 0.9 22.1
2017-Mar-24 23:00N 20°41' W 121°41'0 0.0 22.2
2017-Mar-24 22:00N 20°41' W 121°41'1 0.1 22.2
2017-Mar-24 18:00N 20°41' W 121°41'1 0.6 22.1
2017-Mar-24 17:00N 20°41' W 121°41'1 0.8 22.1
2017-Mar-24 16:00N 20°42' W 121°40'0 0.0 22.1
2017-Mar-24 15:00N 20°42' W 121°40'1 0.6 22.1
2017-Mar-24 14:00N 20°43' W 121°40'0 0.0 22.1
2017-Mar-24 13:00N 20°43' W 121°40'1 0.7 22.1
2017-Mar-24 11:00N 20°44' W 121°40'0 0.0 22.1
2017-Mar-24 10:00N 20°44' W 121°40'0 0.0 22.1
2017-Mar-24 06:00N 20°44' W 121°40'1 1.3 22.2
2017-Mar-24 05:00N 20°44' W 121°38'1 0.6 22.2
2017-Mar-24 04:00N 20°44' W 121°39'0 0.0 22.2
2017-Mar-24 03:00N 20°44' W 121°39'2 2.2 22.2
2017-Mar-24 02:00N 20°44' W 121°37'0 0.0 22.2
2017-Mar-24 01:00N 20°44' W 121°37'0 0.0 22.3
2017-Mar-24 00:00N 20°44' W 121°37'1 0.6 22.3
2017-Mar-23 23:00N 20°44' W 121°37'0 0.0 22.3
2017-Mar-23 22:00N 20°44' W 121°37'3 1.0 22.3
2017-Mar-23 19:00N 20°46' W 121°34'1 0.8 22.3
2017-Mar-23 18:00N 20°45' W 121°34'2 1.6 22.3
2017-Mar-23 17:00N 20°46' W 121°32'1 0.3 22.3
2017-Mar-23 15:00N 20°46' W 121°32'1 0.6 22.3
2017-Mar-23 14:00N 20°46' W 121°31'3 1.1 22.4
2017-Mar-23 11:00N 20°48' W 121°28'3 2.6 22.4
2017-Mar-23 10:00N 20°50' W 121°27'3 2.6 22.4
2017-Mar-23 09:00N 20°48' W 121°28'4 1.3 22.4
2017-Mar-23 06:00N 20°52' W 121°26'1 0.6 22.5
2017-Mar-23 05:00N 20°52' W 121°26'1 0.4 22.5
2017-Mar-23 03:00N 20°53' W 121°26'1 1.3 22.6
2017-Mar-23 02:00N 20°54' W 121°25'1 0.6 22.7
2017-Mar-23 01:00N 20°54' W 121°26'1 0.8 22.8
2017-Mar-23 00:00N 20°55' W 121°25'0 0.0 22.9
2017-Mar-22 23:00N 20°55' W 121°25'1 0.4 22.9
2017-Mar-22 21:00N 20°55' W 121°25'1 0.4 22.9
2017-Mar-22 18:00N 20°56' W 121°24'1 0.6 22.5
2017-Mar-22 17:00N 20°57' W 121°24'1 0.6 22.4
2017-Mar-22 16:00N 20°57' W 121°23'0 0.0 22.4
2017-Mar-22 15:00N 20°57' W 121°23'1 1.1 22.4
2017-Mar-22 14:00N 20°57' W 121°22'1 0.8 22.4
2017-Mar-22 13:00N 20°58' W 121°22'1 0.6 22.4
2017-Mar-22 12:00N 20°58' W 121°22'1 0.8 22.4
2017-Mar-22 11:00N 20°58' W 121°22'2 1.8 22.4
2017-Mar-22 10:00N 20°59' W 121°20'2 1.6 22.4
2017-Mar-22 09:00N 20°58' W 121°21'2 0.5 22.4
2017-Mar-22 06:00N 20°59' W 121°20'1 0.8 22.4
2017-Mar-22 05:00N 20°59' W 121°19'0 0.0 22.5
2017-Mar-22 04:00N 20°59' W 121°19'1 0.6 22.5
2017-Mar-22 03:00N 20°59' W 121°19'2 2.1 22.6
2017-Mar-22 02:00N 21°01' W 121°17'1 0.3 -0.0
2017-Mar-21 23:00N 21°01' W 121°16'2 1.0 22.6
2017-Mar-21 21:00N 21°02' W 121°14'1 0.2 22.6
2017-Mar-21 18:00N 21°03' W 121°14'1 0.8 22.4
2017-Mar-21 17:00N 21°04' W 121°14'0 0.0 22.4
2017-Mar-21 16:00N 21°04' W 121°14'1 0.6 22.3
2017-Mar-21 15:00N 21°03' W 121°14'2 1.8 22.3
2017-Mar-21 14:00N 21°04' W 121°12'0 0.0 22.3
2017-Mar-21 13:00N 21°04' W 121°12'1 1.1 22.3
2017-Mar-21 12:00N 21°04' W 121°11'1 0.6 22.3
2017-Mar-21 11:00N 21°04' W 121°11'3 2.9 22.4
2017-Mar-21 10:00N 21°04' W 121°08'2 2.3 22.4
2017-Mar-21 09:00N 21°04' W 121°11'3 1.0 22.4
2017-Mar-21 06:00N 21°04' W 121°08'1 0.6 22.4
2017-Mar-21 05:00N 21°04' W 121°07'1 0.6 22.4
2017-Mar-21 04:00N 21°04' W 121°07'0 0.0 22.4
2017-Mar-21 03:00N 21°04' W 121°07'1 1.1 22.4
2017-Mar-21 02:00N 21°04' W 121°05'1 0.6 22.4
2017-Mar-21 01:00N 21°04' W 121°05'1 1.1 22.5
2017-Mar-21 00:00N 21°04' W 121°04'0 0.0 22.5
2017-Mar-20 23:00N 21°04' W 121°04'1 1.1 22.5
2017-Mar-20 22:00N 21°04' W 121°03'0 0.0 22.6
2017-Mar-20 21:00N 21°04' W 121°03'3 1.1 22.6
2017-Mar-20 18:00N 21°04' W 120°59'1 1.3 22.3
2017-Mar-20 17:00N 21°03' W 120°58'1 0.6 22.3
2017-Mar-20 16:00N 21°03' W 120°58'0 0.0 22.2
2017-Mar-20 15:00N 21°03' W 120°58'2 1.7 22.2
2017-Mar-20 14:00N 21°03' W 120°56'0 0.0 22.2
2017-Mar-20 13:00N 21°03' W 120°56'1 0.6 22.2
2017-Mar-20 12:00N 21°03' W 120°55'   22.2

Dump ship's entire track history